Time;durP1;ratioP1;P1;durP2;ratioP2;P2;SDS_P1;SDS_P2;PMS_P1;PMS_P2;Temp;Humidity;BMP_temperature;BMP_pressure;BME280_temperature;BME280_humidity;BME280_pressure;Samples;Min_cycle;Max_cycle;Signal;HPM_P1;HPM_P2
2021/06/05 08:00:11;;;;;;;16.42;9.40;;;19.00;99.90;;;;;;4268351;26;20046;-75
2021/06/05 08:02:37;;;;;;;19.08;11.23;;;19.00;99.90;;;;;;5021174;28;20096;-76
2021/06/05 08:05:05;;;;;;;20.88;10.10;;;19.00;99.90;;;;;;5023769;28;20033;-75
2021/06/05 08:07:30;;;;;;;16.60;9.70;;;19.00;99.90;;;;;;5022051;28;20053;-75
2021/06/05 08:09:59;;;;;;;16.83;9.85;;;19.00;99.90;;;;;;5023001;28;20564;-77
2021/06/05 08:12:24;;;;;;;17.95;11.23;;;18.90;99.90;;;;;;5022217;28;20385;-75
2021/06/05 08:14:50;;;;;;;19.42;10.35;;;18.90;99.90;;;;;;5022786;28;20018;-76
2021/06/05 08:17:17;;;;;;;19.95;11.20;;;18.90;99.90;;;;;;5022845;28;20599;-76
2021/06/05 08:19:42;;;;;;;19.85;11.15;;;18.90;99.90;;;;;;5024518;28;20029;-75
2021/06/05 08:22:09;;;;;;;19.98;9.68;;;18.80;99.90;;;;;;5023189;28;20588;-75
2021/06/05 08:24:34;;;;;;;18.77;10.73;;;18.80;99.90;;;;;;5022857;28;20022;-76
2021/06/05 08:27:00;;;;;;;23.10;11.77;;;18.80;99.90;;;;;;5024442;28;20026;-73
2021/06/05 08:29:26;;;;;;;26.67;10.68;;;18.80;99.90;;;;;;5023694;28;20033;-73
2021/06/05 08:31:51;;;;;;;20.90;11.93;;;18.80;99.90;;;;;;5024258;28;20061;-73
2021/06/05 08:34:18;;;;;;;20.52;11.48;;;18.70;99.90;;;;;;5023063;28;20056;-73
2021/06/05 08:36:44;;;;;;;29.70;12.15;;;18.70;99.90;;;;;;5022637;28;20030;-75
2021/06/05 08:39:11;;;;;;;26.67;12.98;;;18.70;99.90;;;;;;5023512;28;20026;-77
2021/06/05 08:41:47;;;;;;;18.13;11.88;;;18.60;99.90;;;;;;5013695;28;20045;-78
2021/06/05 08:44:15;;;;;;;28.92;12.80;;;18.60;99.90;;;;;;5000874;28;20035;-78
2021/06/05 08:46:47;;;;;;;23.73;13.27;;;18.60;99.90;;;;;;5009979;28;20030;-79
2021/06/05 08:49:29;;;;;;;28.88;13.20;;;18.50;99.90;;;;;;5026838;28;20049;-75
2021/06/05 08:51:58;;;;;;;23.98;13.27;;;18.60;99.90;;;;;;5026652;28;20868;-80
2021/06/05 08:54:50;;;;;;;26.38;13.20;;;18.60;99.90;;;;;;5043156;28;20123;-76
2021/06/05 08:57:25;;;;;;;24.38;13.35;;;18.60;99.90;;;;;;5017621;28;20030;-73
2021/06/05 09:00:21;;;;;;;27.65;14.15;;;18.50;99.90;;;;;;5024277;28;20050;-78
2021/06/05 09:02:55;;;;;;;41.92;14.77;;;18.60;99.90;;;;;;5016044;28;20038;-77
2021/06/05 09:05:29;;;;;;;24.23;12.73;;;18.70;99.90;;;;;;5026118;28;20037;-76
2021/06/05 09:07:55;;;;;;;19.88;12.02;;;18.70;99.90;;;;;;5023091;28;20026;-76
2021/06/05 09:10:23;;;;;;;25.70;12.20;;;18.70;99.90;;;;;;5014940;28;20069;-75
2021/06/05 09:12:49;;;;;;;25.40;13.20;;;18.80;99.90;;;;;;5025350;28;20034;-74
2021/06/05 09:15:35;;;;;;;23.13;12.85;;;18.80;99.90;;;;;;5023494;28;20062;-73
2021/06/05 09:18:05;;;;;;;26.95;13.38;;;18.90;99.90;;;;;;5006941;28;20034;-73
2021/06/05 09:20:39;;;;;;;22.95;12.98;;;18.90;99.90;;;;;;5006662;28;20026;-75
2021/06/05 09:23:27;;;;;;;20.75;12.35;;;18.90;99.90;;;;;;5009565;28;20025;-74
2021/06/05 09:25:54;;;;;;;23.55;13.27;;;18.90;99.90;;;;;;5026166;28;20038;-73
2021/06/05 09:28:30;;;;;;;20.65;12.52;;;18.90;99.90;;;;;;5025020;28;20024;-74
2021/06/05 09:31:14;;;;;;;26.38;13.95;;;19.00;99.90;;;;;;5027246;28;20124;-73
2021/06/05 09:33:40;;;;;;;18.80;12.75;;;19.00;99.90;;;;;;5027031;28;20037;-74
2021/06/05 09:36:20;;;;;;;18.15;11.27;;;19.10;99.90;;;;;;5026163;28;20092;-74
2021/06/05 09:38:59;;;;;;;31.50;14.23;;;19.10;99.90;;;;;;5026022;28;20034;-75
2021/06/05 09:41:37;;;;;;;19.60;12.18;;;19.10;99.90;;;;;;5027371;28;20038;-74
2021/06/05 09:44:20;;;;;;;29.10;14.30;;;19.10;99.90;;;;;;5027315;28;20026;-74
2021/06/05 09:47:03;;;;;;;25.33;13.43;;;19.20;99.90;;;;;;5027009;28;20029;-76
2021/06/05 09:49:38;;;;;;;24.08;14.32;;;19.20;99.90;;;;;;5027059;28;20030;-75
2021/06/05 09:52:13;;;;;;;26.25;14.32;;;19.20;99.90;;;;;;5026202;28;20068;-77
2021/06/05 09:54:45;;;;;;;29.30;13.85;;;19.10;99.90;;;;;;5025763;28;20087;-78
2021/06/05 09:57:29;;;;;;;30.83;14.65;;;19.10;99.90;;;;;;5026116;28;20041;-79
2021/06/05 10:00:11;;;;;;;33.33;15.13;;;18.90;99.90;;;;;;5026626;28;20465;-78
2021/06/05 10:02:41;;;;;;;25.52;13.65;;;19.00;99.90;;;;;;5023219;28;20042;-77
2021/06/05 10:05:19;;;;;;;29.90;15.30;;;19.00;99.90;;;;;;5025557;28;20061;-83
2021/06/05 10:07:45;;;;;;;29.05;14.80;;;19.00;99.90;;;;;;5011572;28;20077;-82
2021/06/05 10:10:29;;;;;;;26.80;14.63;;;19.00;99.90;;;;;;5023558;28;20105;-81
2021/06/05 10:12:59;;;;;;;26.02;15.20;;;19.10;99.90;;;;;;5027144;28;20493;-80
2021/06/05 10:15:34;;;;;;;26.88;14.95;;;19.20;99.90;;;;;;5029496;28;20037;-80
2021/06/05 10:18:08;;;;;;;30.38;15.50;;;19.10;99.90;;;;;;5026200;28;20094;-79
2021/06/05 10:20:41;;;;;;;31.02;15.48;;;19.20;99.90;;;;;;5025170;28;20035;-77
2021/06/05 10:23:08;;;;;;;25.75;14.38;;;19.30;99.90;;;;;;5007473;28;20037;-75
2021/06/05 10:25:40;;;;;;;26.67;14.88;;;19.40;99.90;;;;;;5023263;28;20066;-76
2021/06/05 10:28:17;;;;;;;23.90;12.88;;;19.50;99.90;;;;;;5025654;28;20394;-76
2021/06/05 10:31:02;;;;;;;25.90;14.68;;;19.60;99.90;;;;;;5006807;28;20038;-74
2021/06/05 10:33:37;;;;;;;21.27;12.88;;;19.70;99.90;;;;;;5006940;28;20038;-74
2021/06/05 10:36:18;;;;;;;29.13;15.07;;;19.90;99.90;;;;;;5021511;28;20054;-73
2021/06/05 10:39:00;;;;;;;26.48;15.13;;;20.10;99.90;;;;;;5007020;28;20029;-74
2021/06/05 10:41:29;;;;;;;35.95;13.82;;;20.40;99.90;;;;;;5005834;28;20065;-74
2021/06/05 10:43:56;;;;;;;24.00;13.60;;;20.70;99.90;;;;;;5006822;28;20126;-73
2021/06/05 10:46:50;;;;;;;20.73;12.50;;;21.00;99.90;;;;;;5006796;28;20078;-76
2021/06/05 10:49:20;;;;;;;21.23;12.73;;;21.40;99.90;;;;;;5012189;28;20022;-75
2021/06/05 10:51:50;;;;;;;24.48;13.80;;;21.60;99.90;;;;;;5022183;28;20030;-76
2021/06/05 10:54:28;;;;;;;20.95;11.80;;;21.60;99.90;;;;;;5021157;28;20034;-77
2021/06/05 10:56:57;;;;;;;21.45;11.52;;;21.70;99.90;;;;;;5004753;28;20026;-75
2021/06/05 10:59:57;;;;;;;20.45;12.80;;;21.60;99.90;;;;;;5005761;28;20141;-72
2021/06/05 11:02:36;;;;;;;23.35;12.75;;;21.70;99.90;;;;;;5004869;28;20038;-74
2021/06/05 11:05:29;;;;;;;23.42;13.73;;;21.80;99.90;;;;;;5005965;28;20115;-74
2021/06/05 11:08:19;;;;;;;22.67;13.40;;;22.30;99.90;;;;;;5005837;28;20029;-73
2021/06/05 11:10:53;;;;;;;21.92;11.55;;;23.00;99.90;;;;;;5005595;28;20038;-75
2021/06/05 11:13:35;;;;;;;19.45;11.13;;;23.60;99.90;;;;;;5005846;28;20041;-74
2021/06/05 11:16:03;;;;;;;19.52;11.55;;;23.90;99.90;;;;;;5006144;28;20482;-77
2021/06/05 11:18:35;;;;;;;26.52;11.18;;;24.10;99.90;;;;;;5004260;28;20033;-75
2021/06/05 11:21:24;;;;;;;18.52;11.05;;;24.10;99.90;;;;;;5004675;28;20033;-75
2021/06/05 11:24:19;;;;;;;18.45;10.52;;;24.00;99.90;;;;;;5005344;28;20026;-75
2021/06/05 11:26:52;;;;;;;16.27;9.68;;;24.10;99.90;;;;;;5005278;28;20034;-75
2021/06/05 11:29:21;;;;;;;14.40;7.78;;;24.30;99.90;;;;;;5013065;28;20482;-77
2021/06/05 11:31:49;;;;;;;12.18;8.18;;;24.40;99.90;;;;;;5014707;28;20024;-74
2021/06/05 11:34:39;;;;;;;8.88;6.40;;;24.30;99.90;;;;;;5018964;28;20026;-76
2021/06/05 11:37:15;;;;;;;12.57;7.55;;;24.10;99.90;;;;;;5025233;28;20025;-74
2021/06/05 11:39:48;;;;;;;24.27;7.18;;;23.90;99.90;;;;;;5025311;28;20033;-76
2021/06/05 11:42:17;;;;;;;15.30;8.30;;;24.00;99.90;;;;;;5025271;28;20056;-74
2021/06/05 11:44:44;;;;;;;14.10;7.82;;;23.80;99.90;;;;;;5020885;28;20026;-75
2021/06/05 11:47:16;;;;;;;16.42;8.38;;;23.70;99.90;;;;;;5021762;28;20026;-75
2021/06/05 11:49:52;;;;;;;10.25;7.63;;;23.50;99.90;;;;;;5023612;28;20042;-74
2021/06/05 11:52:31;;;;;;;14.38;9.05;;;23.30;99.90;;;;;;5023414;28;20026;-75
2021/06/05 11:55:02;;;;;;;14.60;8.43;;;23.10;99.90;;;;;;5024060;28;20045;-75
2021/06/05 11:57:35;;;;;;;14.43;8.13;;;22.90;99.90;;;;;;5023256;28;20069;-78
2021/06/05 12:00:05;;;;;;;13.05;7.88;;;22.70;99.90;;;;;;5022137;28;20046;-80
2021/06/05 12:02:37;;;;;;;13.52;8.77;;;22.60;99.90;;;;;;5022323;28;20052;-74
2021/06/05 12:05:17;;;;;;;15.00;8.52;;;22.50;99.90;;;;;;5023798;28;20032;-73
2021/06/05 12:07:43;;;;;;;13.27;8.15;;;22.40;99.90;;;;;;5024590;28;20022;-72
2021/06/05 12:10:12;;;;;;;13.98;9.50;;;22.20;99.90;;;;;;5023900;28;20076;-74
2021/06/05 12:12:48;;;;;;;16.88;9.43;;;22.10;99.90;;;;;;5022130;28;20105;-75
2021/06/05 12:15:25;;;;;;;12.55;8.43;;;22.00;99.90;;;;;;5023835;28;20030;-76
2021/06/05 12:17:59;;;;;;;18.95;8.30;;;21.90;99.90;;;;;;5023680;28;20025;-74
2021/06/05 12:20:27;;;;;;;15.38;9.23;;;21.80;99.90;;;;;;5025291;28;20866;-76
2021/06/05 12:22:56;;;;;;;13.85;8.82;;;21.60;99.90;;;;;;5030879;28;20606;-75
2021/06/05 12:25:41;;;;;;;16.48;9.25;;;21.50;99.90;;;;;;5031544;28;20056;-75
2021/06/05 12:28:28;;;;;;;16.88;10.55;;;21.40;99.90;;;;;;5031214;28;20026;-74
2021/06/05 12:30:56;;;;;;;15.40;9.43;;;21.30;99.90;;;;;;5029774;28;20037;-75
2021/06/05 12:33:32;;;;;;;18.15;10.02;;;21.30;99.90;;;;;;5030820;28;20081;-74
2021/06/05 12:36:01;;;;;;;15.02;9.27;;;21.40;99.90;;;;;;5031167;28;20026;-73
2021/06/05 12:38:38;;;;;;;17.05;10.18;;;21.50;99.90;;;;;;5030867;28;20477;-75
2021/06/05 12:41:21;;;;;;;18.92;11.15;;;21.60;99.90;;;;;;5031057;28;20052;-76
2021/06/05 12:43:47;;;;;;;16.17;10.25;;;21.70;99.90;;;;;;5031112;28;20030;-77
2021/06/05 12:46:24;;;;;;;23.00;11.15;;;21.70;99.90;;;;;;5030831;28;20026;-75
2021/06/05 12:48:52;;;;;;;22.80;11.65;;;21.70;99.90;;;;;;5031232;28;20032;-75
2021/06/05 12:51:22;;;;;;;21.00;11.55;;;21.70;99.90;;;;;;5031327;28;20121;-75
2021/06/05 12:54:00;;;;;;;17.35;10.23;;;21.80;99.90;;;;;;5031441;28;20065;-75
2021/06/05 12:56:30;;;;;;;19.83;11.73;;;21.80;99.90;;;;;;5030937;28;20026;-76
2021/06/05 12:58:59;;;;;;;18.60;10.80;;;21.80;99.90;;;;;;5029286;28;20060;-73
2021/06/05 13:01:26;;;;;;;17.58;10.32;;;21.80;99.90;;;;;;5029366;28;20036;-73
2021/06/05 13:03:52;;;;;;;16.58;10.23;;;21.90;99.90;;;;;;5030861;28;20030;-74
2021/06/05 13:06:20;;;;;;;19.42;10.60;;;22.10;99.90;;;;;;5030933;28;20032;-75
2021/06/05 13:08:49;;;;;;;24.42;10.35;;;22.20;99.90;;;;;;5030635;28;20033;-76
2021/06/05 13:11:36;;;;;;;15.07;9.38;;;22.20;99.90;;;;;;5029617;28;20037;-73
2021/06/05 13:14:15;;;;;;;14.80;9.63;;;22.20;99.90;;;;;;5029579;28;20036;-74
2021/06/05 13:16:41;;;;;;;17.90;9.45;;;22.20;99.90;;;;;;5029225;28;20033;-75
2021/06/05 13:19:19;;;;;;;20.00;10.65;;;22.20;99.90;;;;;;5030726;28;20022;-77
2021/06/05 13:22:00;;;;;;;20.58;10.48;;;22.20;99.90;;;;;;5030474;28;20025;-80
2021/06/05 13:24:26;;;;;;;15.40;9.82;;;22.20;99.90;;;;;;5029481;28;20034;-81
2021/06/05 13:27:10;;;;;;;16.25;9.68;;;22.20;99.90;;;;;;5030779;28;20026;-79
2021/06/05 13:29:47;;;;;;;16.23;9.95;;;22.30;99.90;;;;;;5026361;28;20030;-84
2021/06/05 13:32:26;;;;;;;17.50;9.38;;;22.40;99.90;;;;;;5009384;28;20050;-83
2021/06/05 13:34:52;;;;;;;15.50;9.38;;;22.50;99.90;;;;;;5006480;28;20027;-82
2021/06/05 13:37:25;;;;;;;18.50;9.63;;;22.60;99.90;;;;;;5005897;28;20031;-82
2021/06/05 13:40:08;;;;;;;16.15;9.95;;;22.70;99.90;;;;;;5004889;28;20034;-80
2021/06/05 13:42:53;;;;;;;14.38;8.85;;;22.80;99.90;;;;;;5005961;28;20093;-80
2021/06/05 13:45:29;;;;;;;14.98;9.00;;;22.80;99.90;;;;;;5007112;28;20037;-80
2021/06/05 13:47:54;;;;;;;15.60;8.82;;;22.90;99.90;;;;;;5006385;28;20030;-78
2021/06/05 13:50:25;;;;;;;12.07;7.55;;;22.90;99.90;;;;;;5007534;28;20046;-75
2021/06/05 13:52:52;;;;;;;13.52;8.20;;;22.90;99.90;;;;;;5006753;28;20128;-76
2021/06/05 13:55:30;;;;;;;13.65;8.73;;;22.90;99.90;;;;;;5006463;28;20117;-77
2021/06/05 13:57:57;;;;;;;12.90;8.13;;;22.90;99.90;;;;;;5005879;28;20030;-76
2021/06/05 14:00:26;;;;;;;13.40;8.10;;;22.90;99.90;;;;;;5007415;28;20054;-77
2021/06/05 14:02:53;;;;;;;16.35;8.40;;;22.90;99.90;;;;;;5006678;28;20053;-76
2021/06/05 14:05:21;;;;;;;14.73;7.93;;;22.80;99.90;;;;;;5007476;28;20037;-76
2021/06/05 14:07:48;;;;;;;20.42;8.13;;;22.80;99.90;;;;;;5008667;28;20034;-75
2021/06/05 14:10:14;;;;;;;15.27;8.70;;;22.80;99.90;;;;;;5014787;28;20564;-75
2021/06/05 14:12:44;;;;;;;13.63;8.77;;;22.70;99.90;;;;;;5018295;28;20022;-76
2021/06/05 14:15:23;;;;;;;15.75;8.75;;;22.60;99.90;;;;;;5027285;28;20120;-75
2021/06/05 14:17:49;;;;;;;15.65;9.00;;;22.50;99.90;;;;;;5026834;28;20433;-73
2021/06/05 14:20:18;;;;;;;14.50;7.90;;;22.50;99.90;;;;;;5020530;28;20046;-73
2021/06/05 14:22:44;;;;;;;13.88;8.65;;;22.40;99.90;;;;;;5019201;28;20429;-73
2021/06/05 14:25:12;;;;;;;16.80;8.93;;;22.40;99.90;;;;;;5006524;28;20085;-73
2021/06/05 14:27:39;;;;;;;13.30;7.88;;;22.30;99.90;;;;;;5006218;28;20033;-73
2021/06/05 14:30:13;;;;;;;18.75;8.43;;;22.30;99.90;;;;;;5012458;28;20366;-73
2021/06/05 14:32:39;;;;;;;;;;;22.20;99.90;;;;;;5016312;28;20057;-73
2021/06/05 14:35:06;;;;;;;17.25;8.18;;;22.20;99.90;;;;;;5007228;28;19906;-72
2021/06/05 14:37:32;;;;;;;13.82;8.35;;;22.20;99.90;;;;;;5006797;28;20032;-72
2021/06/05 14:39:58;;;;;;;13.38;8.23;;;22.10;99.90;;;;;;5006488;28;20030;-71
2021/06/05 14:42:24;;;;;;;17.05;8.80;;;22.10;99.90;;;;;;5006301;28;20032;-72
2021/06/05 14:44:49;;;;;;;15.38;9.48;;;22.00;99.90;;;;;;5008011;28;20081;-72
2021/06/05 14:47:16;;;;;;;17.38;9.30;;;22.00;99.90;;;;;;5014541;28;20026;-72
2021/06/05 14:49:42;;;;;;;14.60;8.73;;;22.00;99.90;;;;;;5016005;28;20042;-71
2021/06/05 14:52:08;;;;;;;13.98;9.15;;;21.90;99.90;;;;;;5015175;28;20034;-72
2021/06/05 14:54:35;;;;;;;16.38;10.07;;;21.80;99.90;;;;;;5014576;28;20053;-74
2021/06/05 14:57:00;;;;;;;17.23;9.13;;;21.70;99.90;;;;;;5016364;28;20021;-75
2021/06/05 14:59:26;;;;;;;15.95;9.25;;;21.70;99.90;;;;;;5018861;28;20053;-73
2021/06/05 15:01:52;;;;;;;11.98;8.52;;;21.60;99.90;;;;;;5019546;28;20035;-72
2021/06/05 15:04:17;;;;;;;10.52;6.95;;;21.60;99.90;;;;;;5017775;28;20033;-72
2021/06/05 15:06:43;;;;;;;14.25;8.30;;;21.50;99.90;;;;;;5019101;28;20058;-71
2021/06/05 15:09:09;;;;;;;15.02;8.68;;;21.40;99.90;;;;;;5012749;28;20088;-74
2021/06/05 15:11:36;;;;;;;16.75;9.45;;;21.30;99.90;;;;;;5019021;28;20042;-75
2021/06/05 15:14:02;;;;;;;11.77;8.57;;;21.30;99.90;;;;;;5019347;28;20084;-72
2021/06/05 15:16:28;;;;;;;16.02;9.50;;;21.20;99.90;;;;;;5015403;28;20025;-72
2021/06/05 15:18:54;;;;;;;14.27;6.32;;;21.20;99.90;;;;;;5016033;28;20048;-72
2021/06/05 15:21:21;;;;;;;10.18;6.30;;;21.20;99.90;;;;;;5022111;28;20041;-72
2021/06/05 15:23:48;;;;;;;11.07;5.78;;;21.10;99.90;;;;;;5025289;28;20080;-73
2021/06/05 15:26:14;;;;;;;10.73;6.82;;;21.10;99.90;;;;;;5024275;28;20033;-73
2021/06/05 15:28:41;;;;;;;8.88;6.03;;;21.00;99.90;;;;;;5024978;28;20030;-73
2021/06/05 15:31:07;;;;;;;11.30;6.38;;;21.00;99.90;;;;;;5025207;28;20065;-73
2021/06/05 15:33:35;;;;;;;14.00;6.13;;;20.90;99.90;;;;;;5024819;28;20022;-72
2021/06/05 15:36:08;;;;;;;12.13;6.28;;;20.90;99.90;;;;;;5017319;28;20034;-74
2021/06/05 15:38:34;;;;;;;10.73;6.88;;;20.70;99.90;;;;;;5021911;28;20030;-74
2021/06/05 15:41:00;;;;;;;11.48;6.78;;;20.80;99.90;;;;;;5024209;28;20385;-73
2021/06/05 15:43:34;;;;;;;11.35;6.28;;;20.70;99.90;;;;;;5025031;28;20041;-73
2021/06/05 15:46:01;;;;;;;;;;;20.70;99.90;;;;;;5025718;28;20045;-73
2021/06/05 15:48:37;;;;;;;10.48;5.93;;;20.70;99.90;;;;;;5024153;28;20440;-72
2021/06/05 15:51:10;;;;;;;9.70;5.18;;;20.60;99.90;;;;;;5024737;28;20053;-74
2021/06/05 15:53:38;;;;;;;12.93;6.38;;;20.60;99.90;;;;;;5025488;28;20120;-74
2021/06/05 15:56:08;;;;;;;10.45;5.70;;;20.50;99.90;;;;;;5023795;28;20037;-74
2021/06/05 15:58:34;;;;;;;7.15;5.47;;;20.60;99.90;;;;;;5023119;28;20050;-73
2021/06/05 16:01:00;;;;;;;12.18;5.97;;;20.50;99.90;;;;;;5025611;28;20038;-73
2021/06/05 16:03:25;;;;;;;8.52;6.10;;;20.50;99.90;;;;;;5024988;28;20025;-73
2021/06/05 16:05:51;;;;;;;12.02;5.95;;;20.40;99.90;;;;;;5024466;28;20053;-73
2021/06/05 16:08:17;;;;;;;11.63;6.03;;;20.50;99.90;;;;;;5024912;28;20025;-73
2021/06/05 16:10:44;;;;;;;11.80;5.43;;;20.50;99.90;;;;;;5024511;28;20034;-74
2021/06/05 16:13:10;;;;;;;8.13;5.20;;;20.50;99.90;;;;;;5024435;28;20026;-73
2021/06/05 16:15:40;;;;;;;10.18;5.40;;;20.50;99.90;;;;;;5024416;28;20046;-74
2021/06/05 16:18:11;;;;;;;8.63;5.20;;;20.40;99.90;;;;;;5023418;28;20030;-74
2021/06/05 16:20:38;;;;;;;8.52;5.13;;;20.40;99.90;;;;;;5024725;28;20030;-73
2021/06/05 16:23:04;;;;;;;11.25;5.05;;;20.50;99.90;;;;;;5023712;28;20057;-74
2021/06/05 16:25:31;;;;;;;7.63;4.45;;;20.40;99.90;;;;;;5024747;28;20109;-72
2021/06/05 16:27:57;;;;;;;8.23;4.97;;;20.50;99.90;;;;;;5024193;28;20023;-74
2021/06/05 16:30:26;;;;;;;9.10;5.07;;;20.50;99.90;;;;;;5023169;28;20042;-73
2021/06/05 16:32:53;;;;;;;9.27;5.78;;;20.50;99.90;;;;;;5023458;28;20500;-73
2021/06/05 16:35:21;;;;;;;10.85;5.93;;;20.50;99.90;;;;;;5021766;28;20018;-72
2021/06/05 16:37:47;;;;;;;13.75;7.10;;;20.50;99.90;;;;;;5020761;28;20023;-72
2021/06/05 16:40:14;;;;;;;12.82;6.60;;;20.50;99.90;;;;;;5019775;28;20062;-72
2021/06/05 16:42:40;;;;;;;10.02;6.32;;;20.50;99.90;;;;;;5017785;28;20030;-72
2021/06/05 16:45:10;;;;;;;11.65;5.90;;;20.60;99.90;;;;;;5004827;28;20037;-73
2021/06/05 16:47:36;;;;;;;14.68;6.70;;;20.60;99.90;;;;;;5003747;28;20032;-72
2021/06/05 16:50:09;;;;;;;14.35;6.85;;;20.70;99.90;;;;;;5014162;28;20069;-72
2021/06/05 16:52:35;;;;;;;9.40;5.95;;;20.80;99.90;;;;;;5013229;28;20045;-72
2021/06/05 16:55:01;;;;;;;8.75;5.25;;;20.80;99.90;;;;;;5014124;28;20018;-74
2021/06/05 16:57:27;;;;;;;8.43;5.13;;;20.90;99.90;;;;;;5014666;28;20034;-73
2021/06/05 16:59:52;;;;;;;11.95;5.60;;;20.90;99.90;;;;;;5012844;28;20046;-72
2021/06/05 17:02:23;;;;;;;9.05;5.22;;;20.90;99.90;;;;;;5014068;28;20034;-73
2021/06/05 17:04:49;;;;;;;10.30;5.47;;;20.90;99.90;;;;;;5015054;28;20030;-72
2021/06/05 17:07:18;;;;;;;8.75;5.32;;;21.00;99.90;;;;;;5013565;28;20029;-74
2021/06/05 17:09:44;;;;;;;7.65;5.18;;;21.00;99.90;;;;;;5016987;28;20029;-72
2021/06/05 17:12:11;;;;;;;9.32;5.60;;;21.00;99.90;;;;;;5021669;28;20034;-73
2021/06/05 17:14:37;;;;;;;8.27;5.45;;;21.10;99.90;;;;;;5018815;28;20034;-74
2021/06/05 17:17:03;;;;;;;9.15;5.22;;;21.10;99.90;;;;;;5017629;28;20030;-73
2021/06/05 17:19:29;;;;;;;7.68;4.68;;;21.10;99.90;;;;;;5018512;28;20086;-75
2021/06/05 17:21:54;;;;;;;9.00;5.63;;;21.10;99.90;;;;;;5016241;28;20037;-73
2021/06/05 17:24:20;;;;;;;8.20;4.72;;;21.20;99.90;;;;;;5017001;28;20123;-73
2021/06/05 17:26:45;;;;;;;6.65;4.10;;;21.20;99.90;;;;;;5017927;28;20027;-73
2021/06/05 17:29:13;;;;;;;7.35;4.82;;;21.20;99.90;;;;;;5015697;28;20027;-73
2021/06/05 17:31:40;;;;;;;9.90;5.75;;;21.20;99.90;;;;;;5016319;28;20045;-72
2021/06/05 17:34:06;;;;;;;9.35;5.32;;;21.10;99.90;;;;;;5016898;28;20053;-73
2021/06/05 17:36:32;;;;;;;11.23;6.10;;;21.10;99.90;;;;;;5018029;28;20029;-72
2021/06/05 17:39:01;;;;;;;9.98;5.18;;;21.00;99.90;;;;;;5014699;28;20023;-72
2021/06/05 17:41:27;;;;;;;13.30;7.13;;;21.00;99.90;;;;;;5010641;28;20014;-75
2021/06/05 17:43:53;;;;;;;12.70;5.88;;;20.90;99.90;;;;;;5006200;28;20081;-74
2021/06/05 17:46:20;;;;;;;12.25;6.65;;;20.90;99.90;;;;;;5007177;28;20023;-75
2021/06/05 17:48:46;;;;;;;11.13;6.00;;;20.90;99.90;;;;;;5006335;28;20054;-76
2021/06/05 17:51:16;;;;;;;8.75;5.45;;;20.90;99.90;;;;;;5004511;28;20047;-76
2021/06/05 17:53:55;;;;;;;10.45;5.38;;;20.90;99.90;;;;;;5006105;28;20027;-77
2021/06/05 17:56:21;;;;;;;11.55;5.35;;;20.80;99.90;;;;;;5007375;28;20046;-75
2021/06/05 17:58:47;;;;;;;13.23;7.53;;;20.80;99.90;;;;;;5006067;28;20054;-76
2021/06/05 18:01:16;;;;;;;11.05;6.60;;;20.70;99.90;;;;;;5005888;28;20057;-74
2021/06/05 18:03:51;;;;;;;12.43;7.10;;;20.70;99.90;;;;;;5005483;28;20041;-73
2021/06/05 18:06:19;;;;;;;13.45;7.72;;;20.60;99.90;;;;;;5007031;28;20023;-74
2021/06/05 18:08:49;;;;;;;12.65;6.85;;;20.50;99.90;;;;;;5006016;28;20117;-76
2021/06/05 18:11:30;;;;;;;13.52;7.30;;;20.50;99.90;;;;;;5005409;28;20042;-76
2021/06/05 18:13:56;;;;;;;11.27;6.45;;;20.50;99.90;;;;;;5007598;28;20457;-75
2021/06/05 18:16:25;;;;;;;14.48;8.90;;;20.40;99.90;;;;;;5007310;28;20034;-73
2021/06/05 18:18:51;;;;;;;14.95;9.52;;;20.40;99.90;;;;;;5005673;28;20057;-74
2021/06/05 18:21:20;;;;;;;15.40;9.18;;;20.40;99.90;;;;;;5005714;28;20022;-74
2021/06/05 18:23:50;;;;;;;19.98;9.77;;;20.40;99.90;;;;;;5005455;28;20030;-76
2021/06/05 18:26:16;;;;;;;18.35;10.25;;;20.40;99.90;;;;;;5005278;28;20037;-76
2021/06/05 18:28:42;;;;;;;17.63;9.15;;;20.30;99.90;;;;;;5005575;28;20494;-76
2021/06/05 18:31:09;;;;;;;14.57;8.48;;;20.30;99.90;;;;;;5005503;28;20104;-75
2021/06/05 18:33:38;;;;;;;19.25;10.18;;;20.30;99.90;;;;;;5006741;28;20061;-74
2021/06/05 18:36:07;;;;;;;20.60;10.18;;;20.20;99.90;;;;;;5006755;28;20023;-74
2021/06/05 18:38:35;;;;;;;23.17;11.25;;;20.20;99.90;;;;;;5006679;28;20030;-74
2021/06/05 18:41:03;;;;;;;19.15;10.23;;;20.10;99.90;;;;;;5006425;28;20033;-73
2021/06/05 18:43:31;;;;;;;19.98;12.35;;;20.20;99.90;;;;;;5019508;28;20117;-74
2021/06/05 18:45:57;;;;;;;19.20;12.73;;;20.10;99.90;;;;;;5020524;28;20022;-74
2021/06/05 18:48:25;;;;;;;24.95;12.35;;;20.10;99.90;;;;;;5026209;28;20080;-73
2021/06/05 18:50:53;;;;;;;20.20;11.32;;;20.10;99.90;;;;;;5018127;28;20058;-75
2021/06/05 18:53:22;;;;;;;15.77;11.20;;;20.10;99.90;;;;;;5006197;28;20391;-73
2021/06/05 18:55:52;;;;;;;19.52;12.35;;;20.10;99.90;;;;;;5006474;28;20028;-74
2021/06/05 18:58:20;;;;;;;17.50;11.45;;;20.10;99.90;;;;;;5017599;28;20461;-74
2021/06/05 19:00:46;;;;;;;25.55;12.50;;;20.10;99.90;;;;;;5025875;28;20029;-74
2021/06/05 19:03:12;;;;;;;22.88;11.93;;;20.20;99.90;;;;;;5025684;28;20022;-73
2021/06/05 19:05:40;;;;;;;25.45;13.25;;;20.10;99.90;;;;;;5025826;28;20081;-73
2021/06/05 19:08:09;;;;;;;22.33;12.90;;;20.10;99.90;;;;;;5025582;28;20053;-72
2021/06/05 19:10:39;;;;;;;17.30;11.20;;;20.10;99.90;;;;;;5025928;28;20037;-77
2021/06/05 19:13:08;;;;;;;16.80;10.27;;;20.10;99.90;;;;;;5025655;28;20112;-73
2021/06/05 19:15:37;;;;;;;18.30;10.57;;;20.10;99.90;;;;;;5025790;28;20474;-71
2021/06/05 19:18:08;;;;;;;23.30;12.40;;;20.00;99.90;;;;;;5021290;28;20026;-74
2021/06/05 19:20:34;;;;;;;22.17;11.48;;;20.00;99.90;;;;;;5006016;28;20046;-73
2021/06/05 19:23:00;;;;;;;19.88;11.73;;;20.00;99.90;;;;;;5005430;28;20053;-73
2021/06/05 19:25:28;;;;;;;24.52;12.27;;;19.90;99.90;;;;;;5002749;28;20026;-73
2021/06/05 19:28:00;;;;;;;23.25;12.73;;;19.90;99.90;;;;;;5004244;28;20390;-77
2021/06/05 19:30:48;;;;;;;23.40;12.23;;;19.80;99.90;;;;;;5005426;28;20134;-74
2021/06/05 19:33:22;;;;;;;22.35;11.85;;;19.80;99.90;;;;;;5015607;28;20034;-75
2021/06/05 19:35:47;;;;;;;22.60;11.27;;;19.70;99.90;;;;;;5013893;28;20038;-74
2021/06/05 19:38:13;;;;;;;21.05;11.77;;;19.70;99.90;;;;;;5002653;28;20031;-74
2021/06/05 19:40:40;;;;;;;23.67;13.02;;;19.60;99.90;;;;;;5004212;28;20030;-74
2021/06/05 19:43:06;;;;;;;29.13;13.38;;;19.60;99.90;;;;;;5004603;28;20019;-74
2021/06/05 19:45:36;;;;;;;26.20;12.65;;;19.50;99.90;;;;;;5005455;28;20058;-74
2021/06/05 19:48:03;;;;;;;27.77;13.05;;;19.50;99.90;;;;;;5003513;28;20072;-74
2021/06/05 19:50:29;;;;;;;29.17;14.88;;;19.40;99.90;;;;;;5004789;28;20038;-76
2021/06/05 19:52:57;;;;;;;25.50;13.98;;;19.40;99.90;;;;;;5020000;28;20027;-71
2021/06/05 19:55:24;;;;;;;23.95;13.27;;;19.40;99.90;;;;;;5019968;28;20030;-72
2021/06/05 19:57:52;;;;;;;29.27;15.48;;;19.20;99.90;;;;;;5005493;28;20037;-72
2021/06/05 20:00:32;;;;;;;27.30;15.70;;;19.10;99.90;;;;;;5008163;28;20050;-72
2021/06/05 20:02:58;;;;;;;28.58;16.15;;;19.10;99.90;;;;;;5018043;28;20022;-73
2021/06/05 20:05:26;;;;;;;30.58;15.20;;;19.00;99.90;;;;;;5017127;28;20026;-74
2021/06/05 20:07:52;;;;;;;25.25;13.65;;;18.90;99.90;;;;;;5017529;28;20026;-75
2021/06/05 20:10:21;;;;;;;31.05;16.20;;;18.90;99.90;;;;;;5013083;28;20109;-74
2021/06/05 20:12:48;;;;;;;28.08;14.90;;;18.80;99.90;;;;;;5013573;28;20022;-75
2021/06/05 20:15:17;;;;;;;26.33;14.30;;;18.70;99.90;;;;;;5012584;28;20102;-74
2021/06/05 20:17:44;;;;;;;27.67;14.88;;;18.60;99.90;;;;;;5012766;28;20048;-73
2021/06/05 20:20:14;;;;;;;35.38;15.43;;;18.60;99.90;;;;;;5013238;28;20041;-74
2021/06/05 20:22:41;;;;;;;33.95;17.33;;;18.50;99.90;;;;;;5012612;28;20026;-74
2021/06/05 20:25:08;;;;;;;29.38;15.93;;;18.50;99.90;;;;;;5011981;28;20030;-75
2021/06/05 20:27:34;;;;;;;32.90;15.68;;;18.40;99.90;;;;;;5013996;28;20085;-76
2021/06/05 20:30:00;;;;;;;33.05;15.48;;;18.40;99.90;;;;;;5014137;28;20041;-71
2021/06/05 20:32:28;;;;;;;30.92;16.17;;;18.30;99.90;;;;;;5016998;28;20033;-73
2021/06/05 20:34:54;;;;;;;30.58;15.85;;;18.30;99.90;;;;;;5016166;28;20029;-73
2021/06/05 20:37:19;;;;;;;33.40;16.98;;;18.20;99.90;;;;;;5013164;28;20030;-72
2021/06/05 20:39:45;;;;;;;28.40;15.73;;;18.20;99.90;;;;;;5012768;28;20023;-75
2021/06/05 20:42:11;;;;;;;28.85;15.63;;;18.10;99.90;;;;;;5015158;28;20083;-73
2021/06/05 20:44:38;;;;;;;33.45;16.23;;;18.10;99.90;;;;;;5018528;28;20033;-72
2021/06/05 20:47:04;;;;;;;31.30;15.32;;;18.10;99.90;;;;;;5015924;28;20031;-75
2021/06/05 20:49:30;;;;;;;28.60;13.85;;;18.10;99.90;;;;;;5018305;28;20030;-73